KRHV 190453Z 30005KT 10SM SCT080 16/10 A3002